0TS0 weather

CLOSED Flower Mound Airport
Flower Mound, Texas, United States

Public forecast

Using degrees Fahrenheit for public forecast. Weather courtesy of forecast.io.

METAR (pilot weather report)

Closest report is Dallas Fort Worth International Airport, 8.7 nm (16.1 km) SSE. Retrieved 2019/07/20 01:53 UTC (47 minutes ago):

KDFW 200153Z 16011KT 10SM BKN300 32/21 A2988 RMK AO2 SLP108 T03170206

TAF (pilot weather forecast)

Forecast is more than 12 hours old.

Closest forecast is Dallas Fort Worth International Airport, 8.7 nm (16.1 km) SSE. Retrieved 2019/07/19 00:36 UTC (1 day ago):

TAF KDFW 192333Z 2000/2106 18017KT P6SM FEW050